createdAt,value
2022-07-26T00:03:53.645Z,988.01
2022-07-26T00:05:53.686Z,987.98
2022-07-26T00:06:53.668Z,987.98
2022-07-26T00:08:53.322Z,987.97
2022-07-26T00:10:53.180Z,987.96
2022-07-26T00:11:53.613Z,987.97
2022-07-26T00:12:53.236Z,988.00
2022-07-26T00:13:53.366Z,988.00
2022-07-26T00:19:18.394Z,988.14
2022-07-26T00:49:50.139Z,988.35
2022-07-26T00:50:50.265Z,988.33
2022-07-26T00:51:49.990Z,988.36
2022-07-26T00:52:49.952Z,988.32
2022-07-26T00:53:49.978Z,988.33
2022-07-26T00:54:49.768Z,988.33
2022-07-26T00:55:49.695Z,988.39
2022-07-26T00:56:53.379Z,988.35
2022-07-26T00:57:49.546Z,988.36
2022-07-26T00:58:49.474Z,988.37
2022-07-26T00:59:49.435Z,988.38
2022-07-26T01:06:41.299Z,988.39
2022-07-26T01:07:41.226Z,988.36
2022-07-26T01:09:48.657Z,988.36
2022-07-26T01:10:48.579Z,988.38
2022-07-26T01:11:48.509Z,988.39
2022-07-26T01:12:48.429Z,988.38
2022-07-26T01:13:48.357Z,988.42
2022-07-26T01:14:48.316Z,988.43
2022-07-26T01:15:48.270Z,988.44
2022-07-26T01:16:48.479Z,988.45
2022-07-26T01:17:48.405Z,988.46
2022-07-26T01:18:47.988Z,988.46
2022-07-26T01:19:48.255Z,988.47
2022-07-26T01:20:47.869Z,988.45
2022-07-26T01:21:47.763Z,988.43
2022-07-26T01:23:47.956Z,988.36
2022-07-26T01:26:47.394Z,988.33
2022-07-26T01:28:39.810Z,988.34
2022-07-26T01:29:39.734Z,988.34
2022-07-26T01:30:39.663Z,988.35
2022-07-26T01:31:39.693Z,988.41
2022-07-26T01:32:39.608Z,988.42
2022-07-26T01:33:39.437Z,988.43
2022-07-26T01:34:39.364Z,988.45
2022-07-26T01:35:39.289Z,988.42
2022-07-26T01:36:39.626Z,988.42
2022-07-26T01:37:39.139Z,988.40
2022-07-26T01:38:39.065Z,988.39
2022-07-26T01:39:38.991Z,988.36
2022-07-26T01:41:37.378Z,988.35
2022-07-26T01:42:21.326Z,988.37
2022-07-26T01:43:21.253Z,988.40
2022-07-26T01:44:21.173Z,988.42
2022-07-26T01:45:21.098Z,988.44
2022-07-26T01:46:21.108Z,988.45
2022-07-26T01:47:20.954Z,988.47
2022-07-26T01:48:20.874Z,988.51
2022-07-26T01:49:20.859Z,988.52
2022-07-26T01:51:20.653Z,988.47
2022-07-26T01:52:20.579Z,988.48
2022-07-26T01:53:20.502Z,988.46
2022-07-26T01:54:22.585Z,988.43
2022-07-26T01:55:20.352Z,988.50
2022-07-26T01:56:20.279Z,988.48
2022-07-26T01:57:20.202Z,988.48
2022-07-26T01:58:20.133Z,988.54
2022-07-26T01:59:20.056Z,988.51
2022-07-26T02:00:20.992Z,988.51
2022-07-26T02:01:39.737Z,988.45
2022-07-26T02:02:19.971Z,988.48
2022-07-26T02:03:19.897Z,988.46
2022-07-26T02:04:19.681Z,988.46
2022-07-26T02:05:19.608Z,988.44
2022-07-26T02:06:19.532Z,988.46
2022-07-26T02:07:19.474Z,988.45
2022-07-26T02:08:19.381Z,988.45
2022-07-26T02:09:19.306Z,988.41
2022-07-26T02:10:19.235Z,988.39
2022-07-26T02:11:19.161Z,988.41
2022-07-26T02:12:19.082Z,988.42
2022-07-26T02:13:19.010Z,988.42
2022-07-26T02:14:25.424Z,988.42
2022-07-26T02:15:18.859Z,988.39
2022-07-26T02:16:18.846Z,988.39
2022-07-26T02:17:18.718Z,988.38
2022-07-26T02:18:18.638Z,988.39
2022-07-26T02:19:18.561Z,988.35
2022-07-26T02:20:18.486Z,988.36
2022-07-26T02:21:18.415Z,988.36
2022-07-26T02:23:13.448Z,988.35
2022-07-26T02:24:11.067Z,988.37
2022-07-26T02:25:10.678Z,988.39
2022-07-26T02:26:10.602Z,988.40
2022-07-26T02:27:10.529Z,988.42
2022-07-26T02:28:10.453Z,988.41
2022-07-26T02:29:10.379Z,988.43
2022-07-26T02:30:10.304Z,988.40
2022-07-26T02:31:10.294Z,988.40
2022-07-26T02:32:10.153Z,988.41
2022-07-26T02:33:10.079Z,988.41
2022-07-26T02:34:10.306Z,988.41
2022-07-26T02:35:09.927Z,988.44
2022-07-26T02:36:09.853Z,988.45
2022-07-26T02:37:09.781Z,988.45
2022-07-26T02:38:09.703Z,988.45
2022-07-26T02:39:09.632Z,988.40
2022-07-26T02:40:09.551Z,988.43
2022-07-26T02:41:09.478Z,988.44
2022-07-26T02:42:09.405Z,988.45
2022-07-26T02:43:09.330Z,988.46
2022-07-26T02:44:09.755Z,988.45
2022-07-26T02:45:09.182Z,988.48
2022-07-26T02:46:09.133Z,988.51
2022-07-26T02:47:09.032Z,988.51
2022-07-26T02:48:08.954Z,988.51
2022-07-26T02:49:08.989Z,988.49
2022-07-26T02:50:08.807Z,988.52
2022-07-26T02:51:08.731Z,988.50
2022-07-26T02:52:08.657Z,988.51
2022-07-26T02:53:08.581Z,988.53
2022-07-26T02:54:09.042Z,988.50
2022-07-26T02:55:08.431Z,988.52
2022-07-26T02:56:08.355Z,988.53
2022-07-26T02:57:08.282Z,988.52
2022-07-26T02:58:08.205Z,988.54
2022-07-26T02:59:08.132Z,988.55
2022-07-26T03:00:08.062Z,988.58
2022-07-26T03:01:08.278Z,988.60
2022-07-26T03:02:07.980Z,988.59
2022-07-26T03:03:07.877Z,988.61
2022-07-26T03:04:08.127Z,988.56
2022-07-26T03:05:07.684Z,988.56
2022-07-26T03:06:07.610Z,988.55
2022-07-26T03:07:07.534Z,988.55
2022-07-26T03:08:07.455Z,988.58
2022-07-26T03:09:07.386Z,988.64
2022-07-26T03:10:07.310Z,988.61
2022-07-26T03:11:11.899Z,988.62
2022-07-26T03:12:07.161Z,988.57
2022-07-26T03:13:07.086Z,988.59
2022-07-26T03:14:07.292Z,988.57
2022-07-26T03:15:06.937Z,988.56
2022-07-26T03:16:06.935Z,988.52
2022-07-26T03:21:15.597Z,988.49
2022-07-26T03:22:15.519Z,988.48
2022-07-26T03:23:15.445Z,988.49
2022-07-26T03:24:19.062Z,988.50
2022-07-26T03:25:15.294Z,988.53
2022-07-26T03:26:15.218Z,988.55
2022-07-26T03:27:15.144Z,988.49
2022-07-26T03:28:19.361Z,988.48
2022-07-26T03:29:14.992Z,988.43
2022-07-26T03:30:14.925Z,988.45
2022-07-26T03:31:14.947Z,988.44
2022-07-26T03:32:14.771Z,988.46
2022-07-26T03:33:14.694Z,988.43
2022-07-26T03:34:14.621Z,988.49
2022-07-26T03:35:14.545Z,988.53
2022-07-26T03:36:15.738Z,988.48
2022-07-26T03:37:14.446Z,988.51
2022-07-26T03:38:14.322Z,988.46
2022-07-26T03:39:14.248Z,988.45
2022-07-26T03:40:14.174Z,988.49
2022-07-26T03:41:14.099Z,988.47
2022-07-26T03:42:14.023Z,988.47
2022-07-26T03:43:13.950Z,988.51
2022-07-26T03:44:13.877Z,988.52
2022-07-26T03:45:13.805Z,988.51
2022-07-26T03:46:13.806Z,988.46
2022-07-26T03:47:13.652Z,988.45
2022-07-26T03:48:13.577Z,988.48
2022-07-26T03:49:16.905Z,988.48
2022-07-26T03:50:13.437Z,988.50
2022-07-26T03:51:13.354Z,988.50
2022-07-26T03:52:13.281Z,988.55
2022-07-26T03:53:13.204Z,988.54
2022-07-26T03:54:13.132Z,988.51
2022-07-26T03:55:13.057Z,988.45
2022-07-26T03:56:12.982Z,988.48
2022-07-26T03:57:12.910Z,988.50
2022-07-26T03:58:15.454Z,988.52
2022-07-26T03:59:12.760Z,988.49
2022-07-26T04:00:12.682Z,988.51
2022-07-26T04:01:12.665Z,988.52
2022-07-26T04:02:12.596Z,988.48
2022-07-26T04:03:12.461Z,988.49
2022-07-26T04:04:12.457Z,988.48
2022-07-26T04:05:12.316Z,988.49
2022-07-26T04:06:12.239Z,988.52
2022-07-26T04:07:12.163Z,988.48
2022-07-26T04:08:12.091Z,988.45
2022-07-26T04:09:12.016Z,988.47
2022-07-26T04:10:11.944Z,988.51
2022-07-26T04:11:11.870Z,988.50
2022-07-26T04:12:11.791Z,988.50
2022-07-26T04:13:11.717Z,988.50
2022-07-26T04:14:12.060Z,988.51
2022-07-26T04:15:11.570Z,988.47
2022-07-26T04:16:11.495Z,988.48
2022-07-26T04:17:11.462Z,988.47
2022-07-26T04:19:48.868Z,988.48
2022-07-26T04:20:48.792Z,988.56
2022-07-26T04:21:48.719Z,988.53
2022-07-26T04:22:48.692Z,988.49
2022-07-26T04:23:51.334Z,988.54
2022-07-26T04:24:48.495Z,988.52
2022-07-26T04:25:48.623Z,988.55
2022-07-26T04:26:48.447Z,988.59
2022-07-26T04:27:48.277Z,988.58
2022-07-26T04:28:48.197Z,988.55
2022-07-26T04:29:48.123Z,988.52
2022-07-26T04:30:48.151Z,988.51
2022-07-26T04:31:47.978Z,988.54
2022-07-26T04:32:47.902Z,988.57
2022-07-26T04:33:47.830Z,988.55
2022-07-26T04:34:47.754Z,988.58
2022-07-26T04:35:47.679Z,988.63
2022-07-26T04:36:47.603Z,988.60
2022-07-26T04:37:47.533Z,988.65
2022-07-26T04:38:47.557Z,988.69
2022-07-26T04:39:51.629Z,988.70
2022-07-26T04:40:47.306Z,988.70
2022-07-26T04:41:47.236Z,988.73
2022-07-26T04:42:47.159Z,988.71
2022-07-26T04:43:47.089Z,988.73
2022-07-26T04:44:47.010Z,988.76
2022-07-26T04:45:46.991Z,988.77
2022-07-26T04:46:46.861Z,988.77
2022-07-26T04:47:46.788Z,988.76
2022-07-26T04:48:46.813Z,988.80
2022-07-26T04:49:46.641Z,988.80
2022-07-26T04:50:46.572Z,988.80
2022-07-26T04:51:46.494Z,988.82
2022-07-26T04:52:46.423Z,988.86
2022-07-26T04:53:46.341Z,988.83
2022-07-26T04:54:46.367Z,988.88
2022-07-26T04:56:48.692Z,988.85
2022-07-26T04:57:48.624Z,988.88
2022-07-26T04:58:48.543Z,988.92
2022-07-26T05:01:10.670Z,988.93
2022-07-26T05:02:06.299Z,988.91
2022-07-26T05:03:05.876Z,988.93
2022-07-26T05:04:07.283Z,988.93
2022-07-26T05:05:06.693Z,988.95
2022-07-26T05:06:05.614Z,988.93
2022-07-26T05:07:05.535Z,988.95
2022-07-26T05:08:05.664Z,988.91
2022-07-26T05:09:05.388Z,988.89
2022-07-26T05:10:05.316Z,988.88
2022-07-26T05:11:05.243Z,988.88
2022-07-26T05:12:05.166Z,988.90
2022-07-26T05:13:05.095Z,988.92
2022-07-26T05:14:05.204Z,988.94
2022-07-26T05:15:04.979Z,988.98
2022-07-26T05:16:11.666Z,989.02
2022-07-26T05:17:08.713Z,988.99
2022-07-26T05:18:06.790Z,989.00
2022-07-26T05:19:04.647Z,989.02
2022-07-26T05:20:04.572Z,989.07
2022-07-26T05:21:04.535Z,989.11
2022-07-26T05:22:04.463Z,989.11
2022-07-26T05:23:04.374Z,989.13
2022-07-26T05:24:04.275Z,989.10
2022-07-26T05:25:04.204Z,989.07
2022-07-26T05:26:04.166Z,989.11
2022-07-26T05:27:04.092Z,989.11
2022-07-26T05:30:04.276Z,989.16
2022-07-26T05:31:03.816Z,989.11
2022-07-26T05:32:03.690Z,989.17
2022-07-26T05:33:03.614Z,989.21
2022-07-26T05:34:03.542Z,989.21
2022-07-26T05:35:03.467Z,989.24
2022-07-26T05:36:03.391Z,989.26
2022-07-26T05:37:03.318Z,989.26
2022-07-26T05:38:03.244Z,989.26
2022-07-26T05:39:03.171Z,989.30
2022-07-26T05:40:03.102Z,989.28
2022-07-26T05:41:03.023Z,989.36
2022-07-26T05:42:02.953Z,989.34
2022-07-26T05:43:02.877Z,989.32
2022-07-26T05:44:02.803Z,989.33
2022-07-26T05:45:02.727Z,989.34
2022-07-26T05:46:05.451Z,989.35
2022-07-26T05:47:02.583Z,989.36
2022-07-26T05:48:02.509Z,989.37
2022-07-26T05:49:02.528Z,989.36
2022-07-26T05:50:02.364Z,989.32
2022-07-26T05:51:02.630Z,989.32
2022-07-26T05:52:02.216Z,989.34
2022-07-26T05:53:02.137Z,989.31
2022-07-26T05:54:02.067Z,989.36
2022-07-26T05:55:02.003Z,989.35
2022-07-26T05:56:01.922Z,989.34
2022-07-26T05:57:01.843Z,989.35
2022-07-26T05:58:01.773Z,989.35
2022-07-26T05:59:01.698Z,989.37
2022-07-26T06:00:01.623Z,989.31
2022-07-26T06:02:01.579Z,989.39
2022-07-26T06:03:01.436Z,989.37
2022-07-26T06:04:01.460Z,989.36
2022-07-26T06:06:01.179Z,989.31
2022-07-26T06:07:01.105Z,989.31
2022-07-26T06:08:01.071Z,989.34
2022-07-26T06:09:00.960Z,989.33
2022-07-26T06:10:00.884Z,989.33
2022-07-26T06:11:00.808Z,989.34
2022-07-26T06:12:00.738Z,989.37
2022-07-26T06:13:00.661Z,989.37
2022-07-26T06:14:00.589Z,989.40
2022-07-26T06:15:00.514Z,989.41
2022-07-26T06:16:00.442Z,989.39
2022-07-26T06:17:00.464Z,989.39
2022-07-26T06:18:00.293Z,989.39
2022-07-26T06:19:00.217Z,989.41
2022-07-26T06:20:00.149Z,989.39
2022-07-26T06:21:02.319Z,989.38
2022-07-26T06:22:00.198Z,989.40
2022-07-26T06:22:59.926Z,989.41
2022-07-26T06:23:59.867Z,989.34
2022-07-26T06:24:59.781Z,989.37
2022-07-26T06:25:59.705Z,989.31
2022-07-26T06:27:05.192Z,989.37
2022-07-26T06:27:59.554Z,989.33
2022-07-26T06:28:59.491Z,989.33
2022-07-26T06:29:59.409Z,989.40
2022-07-26T06:30:59.331Z,989.42
2022-07-26T06:31:59.463Z,989.44
2022-07-26T06:32:59.183Z,989.43
2022-07-26T06:33:59.117Z,989.40
2022-07-26T06:34:59.037Z,989.40
2022-07-26T06:35:58.964Z,989.43
2022-07-26T06:36:58.886Z,989.41
2022-07-26T06:37:58.815Z,989.43
2022-07-26T06:38:58.744Z,989.42
2022-07-26T06:39:58.667Z,989.41
2022-07-26T06:40:58.593Z,989.38
2022-07-26T06:41:58.520Z,989.38
2022-07-26T06:43:02.707Z,989.38
2022-07-26T06:43:58.373Z,989.34
2022-07-26T06:44:58.297Z,989.35
2022-07-26T06:45:58.245Z,989.34
2022-07-26T06:46:58.152Z,989.34
2022-07-26T06:47:58.077Z,989.37
2022-07-26T06:51:57.783Z,989.36
2022-07-26T06:52:57.744Z,989.35
2022-07-26T06:53:57.678Z,989.39
2022-07-26T06:54:57.795Z,989.36
2022-07-26T06:55:57.529Z,989.34
2022-07-26T06:56:57.413Z,989.33
2022-07-26T06:57:57.374Z,989.32
2022-07-26T06:58:57.303Z,989.39
2022-07-26T06:59:57.441Z,989.34
2022-07-26T07:00:57.197Z,989.30
2022-07-26T07:01:59.056Z,989.31
2022-07-26T07:02:56.972Z,989.28
2022-07-26T07:03:56.936Z,989.29
2022-07-26T07:04:56.886Z,989.34
2022-07-26T07:05:56.752Z,989.28
2022-07-26T07:06:56.799Z,989.30
2022-07-26T07:07:56.604Z,989.32
2022-07-26T07:08:56.530Z,989.33
2022-07-26T07:09:56.489Z,989.32
2022-07-26T07:10:56.417Z,989.36
2022-07-26T07:12:03.424Z,989.35
2022-07-26T07:12:56.266Z,989.33
2022-07-26T07:13:56.397Z,989.33
2022-07-26T07:15:56.355Z,989.32
2022-07-26T07:16:56.070Z,989.36
2022-07-26T07:17:55.901Z,989.31
2022-07-26T07:20:55.682Z,989.37
2022-07-26T07:21:55.917Z,989.38
2022-07-26T07:23:55.430Z,989.39
2022-07-26T07:24:55.388Z,989.40
2022-07-26T07:25:55.483Z,989.41
2022-07-26T07:26:55.494Z,989.42
2022-07-26T07:27:55.137Z,989.40
2022-07-26T07:28:55.062Z,989.39
2022-07-26T07:29:54.990Z,989.40
2022-07-26T07:30:57.737Z,989.40
2022-07-26T07:31:54.892Z,989.31
2022-07-26T07:32:54.767Z,989.35
2022-07-26T07:33:54.695Z,989.36
2022-07-26T07:34:54.619Z,989.30
2022-07-26T07:35:54.549Z,989.33
2022-07-26T07:36:54.519Z,989.37
2022-07-26T07:37:54.402Z,989.37
2022-07-26T07:38:54.328Z,989.36
2022-07-26T07:39:54.258Z,989.45
2022-07-26T07:40:54.281Z,989.41
2022-07-26T07:41:54.108Z,989.36
2022-07-26T07:42:54.035Z,989.40
2022-07-26T07:43:53.962Z,989.44
2022-07-26T07:44:54.038Z,989.42
2022-07-26T07:45:53.818Z,989.47
2022-07-26T07:46:53.819Z,989.47
2022-07-26T07:47:53.671Z,989.46
2022-07-26T07:48:53.698Z,989.49
2022-07-26T07:49:53.525Z,989.45
2022-07-26T07:50:53.450Z,989.46
2022-07-26T07:51:53.379Z,989.47
2022-07-26T07:52:53.303Z,989.43
2022-07-26T07:53:56.690Z,989.44
2022-07-26T07:55:06.439Z,989.44
2022-07-26T07:55:55.411Z,989.46
2022-07-26T07:56:53.013Z,989.53
2022-07-26T07:57:52.940Z,989.50
2022-07-26T07:58:52.867Z,989.47
2022-07-26T07:59:52.799Z,989.46
2022-07-26T08:00:52.861Z,989.43
2022-07-26T08:01:52.786Z,989.44
2022-07-26T08:02:52.579Z,989.40
2022-07-26T08:03:52.579Z,989.35
2022-07-26T08:04:52.431Z,989.40
2022-07-26T08:05:52.358Z,989.38
2022-07-26T08:07:36.235Z,989.37
2022-07-26T08:08:34.703Z,989.34
2022-07-26T08:09:34.666Z,989.36
2022-07-26T08:10:34.555Z,989.35
2022-07-26T08:11:34.579Z,989.37
2022-07-26T08:12:34.419Z,989.34
2022-07-26T08:13:34.341Z,989.33
2022-07-26T08:22:19.419Z,989.38
2022-07-26T08:23:19.342Z,989.40
2022-07-26T08:24:19.271Z,989.47
2022-07-26T08:25:19.198Z,989.43
2022-07-26T08:26:19.127Z,989.43
2022-07-26T08:27:19.050Z,989.47
2022-07-26T08:28:45.156Z,989.49
2022-07-26T08:29:18.939Z,989.51
2022-07-26T08:30:19.070Z,989.46
2022-07-26T08:31:18.818Z,989.43
2022-07-26T08:32:18.726Z,989.41
2022-07-26T08:33:18.851Z,989.45
2022-07-26T08:34:18.583Z,989.42
2022-07-26T08:36:18.401Z,989.46
2022-07-26T08:37:18.635Z,989.51
2022-07-26T08:38:18.252Z,989.54
2022-07-26T08:39:18.181Z,989.55
2022-07-26T08:40:18.165Z,989.55
2022-07-26T08:41:18.627Z,989.59
2022-07-26T08:42:17.961Z,989.59
2022-07-26T08:43:17.893Z,989.61
2022-07-26T08:44:17.851Z,989.62
2022-07-26T08:45:17.749Z,989.59
2022-07-26T08:46:19.542Z,989.60
2022-07-26T08:47:17.607Z,989.64
2022-07-26T08:48:18.587Z,989.64
2022-07-26T08:49:17.609Z,989.59
2022-07-26T08:50:17.678Z,989.59
2022-07-26T08:51:17.315Z,989.60
2022-07-26T08:52:17.241Z,989.61
2022-07-26T08:53:17.175Z,989.71
2022-07-26T08:54:17.099Z,989.72
2022-07-26T08:55:17.029Z,989.71
2022-07-26T08:56:16.953Z,989.70
2022-07-26T08:57:16.882Z,989.74
2022-07-26T08:58:16.806Z,989.77
2022-07-26T08:59:20.761Z,989.70
2022-07-26T09:00:16.778Z,989.73
2022-07-26T09:01:16.658Z,989.71
2022-07-26T09:02:16.519Z,989.73
2022-07-26T09:03:16.448Z,989.74
2022-07-26T09:04:29.950Z,989.74
2022-07-26T09:05:16.305Z,989.74
2022-07-26T09:06:16.234Z,989.75
2022-07-26T09:07:16.160Z,989.77
2022-07-26T09:08:16.088Z,989.77
2022-07-26T09:09:16.019Z,989.76
2022-07-26T09:10:15.997Z,989.77
2022-07-26T09:11:15.876Z,989.73
2022-07-26T09:12:15.804Z,989.74
2022-07-26T09:13:15.731Z,989.78
2022-07-26T09:14:15.655Z,989.78
2022-07-26T09:15:15.585Z,989.85
2022-07-26T09:16:15.562Z,989.82
2022-07-26T09:17:15.444Z,989.87
2022-07-26T09:18:15.369Z,989.87
2022-07-26T09:19:15.306Z,989.86
2022-07-26T09:20:15.349Z,989.85
2022-07-26T09:21:15.154Z,989.87
2022-07-26T09:22:15.092Z,989.80
2022-07-26T09:23:15.013Z,989.82
2022-07-26T09:24:14.937Z,989.84
2022-07-26T09:25:14.868Z,989.78
2022-07-26T09:26:14.794Z,989.81
2022-07-26T09:27:14.722Z,989.83
2022-07-26T09:28:14.651Z,989.84
2022-07-26T09:29:14.583Z,989.89
2022-07-26T09:30:14.714Z,989.91
2022-07-26T09:31:14.539Z,989.97
2022-07-26T09:36:14.787Z,989.96
2022-07-26T09:37:14.443Z,989.93
2022-07-26T09:39:15.414Z,989.94
2022-07-26T09:55:20.296Z,990.04
2022-07-26T09:56:20.223Z,989.98
2022-07-26T09:57:20.151Z,990.02
2022-07-26T09:58:20.080Z,990.10
2022-07-26T09:59:20.013Z,990.10
2022-07-26T10:00:19.945Z,990.10
2022-07-26T10:01:19.927Z,990.13
2022-07-26T10:02:19.794Z,990.11
2022-07-26T10:03:19.841Z,990.08
2022-07-26T10:04:19.657Z,990.09
2022-07-26T10:05:19.584Z,990.05
2022-07-26T10:06:19.510Z,990.08
2022-07-26T10:07:19.438Z,990.02
2022-07-26T10:08:19.367Z,990.09
2022-07-26T10:09:19.298Z,990.05
2022-07-26T10:10:19.224Z,990.01
2022-07-26T10:11:19.156Z,990.05
2022-07-26T10:12:19.083Z,990.00
2022-07-26T10:13:19.260Z,990.00
2022-07-26T10:14:18.940Z,990.05
2022-07-26T10:15:18.870Z,990.09
2022-07-26T10:16:18.838Z,990.05
2022-07-26T10:17:18.724Z,990.04
2022-07-26T10:18:18.694Z,990.08
2022-07-26T10:19:18.585Z,990.06
2022-07-26T10:20:24.430Z,990.04
2022-07-26T10:21:18.798Z,990.07
2022-07-26T10:22:18.369Z,990.06
2022-07-26T10:23:18.297Z,990.07
2022-07-26T10:24:18.226Z,990.11
2022-07-26T10:25:19.051Z,990.07
2022-07-26T10:26:18.083Z,990.10
2022-07-26T10:30:17.802Z,990.12
2022-07-26T10:35:17.789Z,990.17
2022-07-26T10:36:17.379Z,990.21
2022-07-26T10:37:17.306Z,990.21
2022-07-26T10:38:17.237Z,990.21
2022-07-26T10:39:17.167Z,990.14
2022-07-26T10:40:17.096Z,990.18
2022-07-26T10:41:17.026Z,990.21
2022-07-26T10:42:16.956Z,990.20
2022-07-26T10:43:39.453Z,990.15
2022-07-26T10:44:16.817Z,990.10
2022-07-26T10:45:16.744Z,990.09
2022-07-26T10:46:16.960Z,990.12
2022-07-26T10:47:16.602Z,990.11
2022-07-26T10:48:16.542Z,990.10
2022-07-26T10:49:16.483Z,990.14
2022-07-26T10:50:16.393Z,990.14
2022-07-26T10:51:16.422Z,990.13
2022-07-26T10:52:16.253Z,990.12
2022-07-26T10:53:16.181Z,990.11
2022-07-26T10:54:16.480Z,990.09
2022-07-26T10:55:16.038Z,990.11
2022-07-26T10:56:15.967Z,990.14
2022-07-26T10:57:15.897Z,990.07
2022-07-26T10:58:15.827Z,990.07
2022-07-26T10:59:27.970Z,990.07
2022-07-26T11:00:15.687Z,990.11
2022-07-26T11:01:15.661Z,990.14
2022-07-26T11:02:15.607Z,990.10
2022-07-26T11:03:16.323Z,990.11
2022-07-26T11:04:15.404Z,990.13
2022-07-26T11:05:15.330Z,990.12
2022-07-26T11:06:15.261Z,990.14
2022-07-26T11:07:15.192Z,990.10
2022-07-26T11:08:15.118Z,990.11
2022-07-26T11:09:15.059Z,990.10
2022-07-26T11:10:14.979Z,990.06
2022-07-26T11:11:14.907Z,990.05
2022-07-26T11:12:14.836Z,990.04
2022-07-26T11:13:14.967Z,990.03
2022-07-26T11:14:15.463Z,990.02
2022-07-26T11:15:14.828Z,990.04
2022-07-26T11:16:14.874Z,990.01
2022-07-26T11:17:14.687Z,990.03
2022-07-26T11:18:14.416Z,990.04
2022-07-26T11:19:14.346Z,990.04
2022-07-26T11:20:14.276Z,990.01
2022-07-26T11:21:14.208Z,990.13
2022-07-26T11:22:14.139Z,990.08
2022-07-26T11:23:14.067Z,990.01
2022-07-26T11:24:14.604Z,990.02
2022-07-26T11:25:13.930Z,989.99
2022-07-26T11:26:13.861Z,989.98
2022-07-26T11:27:13.793Z,990.00
2022-07-26T11:28:13.724Z,989.95
2022-07-26T11:29:17.610Z,989.89
2022-07-26T11:30:13.584Z,989.91
2022-07-26T11:31:14.432Z,989.87
2022-07-26T11:32:17.265Z,989.98
2022-07-26T11:33:13.375Z,989.94
2022-07-26T11:34:13.735Z,989.90
2022-07-26T11:35:13.271Z,989.92
2022-07-26T11:36:13.169Z,989.94
2022-07-26T11:37:13.095Z,989.93
2022-07-26T11:38:13.026Z,989.95
2022-07-26T11:39:12.956Z,989.92
2022-07-26T11:40:12.895Z,989.93
2022-07-26T11:41:12.817Z,989.86
2022-07-26T11:42:12.747Z,989.86
2022-07-26T11:43:12.677Z,989.86
2022-07-26T11:44:13.089Z,989.85
2022-07-26T11:45:12.535Z,989.79
2022-07-26T11:46:12.582Z,989.81
2022-07-26T11:47:12.397Z,989.78
2022-07-26T11:48:12.576Z,989.78
2022-07-26T11:49:12.314Z,989.80
2022-07-26T11:50:18.630Z,989.84
2022-07-26T11:51:12.115Z,989.84
2022-07-26T11:52:12.091Z,989.80
2022-07-26T11:53:11.975Z,989.83
2022-07-26T11:54:12.343Z,989.81
2022-07-26T11:55:11.844Z,989.81
2022-07-26T11:56:11.765Z,989.82
2022-07-26T11:57:11.697Z,989.80
2022-07-26T11:58:11.622Z,989.80
2022-07-26T11:59:11.551Z,989.81
2022-07-26T12:00:11.483Z,989.84
2022-07-26T12:01:11.412Z,989.82
2022-07-26T12:02:11.340Z,989.86
2022-07-26T12:03:11.273Z,989.85
2022-07-26T12:04:11.693Z,990.14
2022-07-26T12:07:36.794Z,989.95
2022-07-26T12:08:36.738Z,989.94
2022-07-26T12:10:36.586Z,990.26
2022-07-26T12:11:36.512Z,990.25
2022-07-26T12:13:19.084Z,990.35
2022-07-26T12:14:19.151Z,990.40
2022-07-26T12:16:46.564Z,990.38
2022-07-26T12:17:46.254Z,990.43
2022-07-26T12:18:46.189Z,990.50
2022-07-26T12:19:46.124Z,990.59
2022-07-26T12:20:46.058Z,990.53
2022-07-26T12:21:45.991Z,990.58
2022-07-26T12:22:45.932Z,990.62
2022-07-26T12:23:45.907Z,990.15
2022-07-26T12:24:45.805Z,990.00
2022-07-26T12:25:49.370Z,990.13
2022-07-26T12:26:45.674Z,989.84
2022-07-26T12:27:45.612Z,989.86
2022-07-26T12:28:45.553Z,989.83
2022-07-26T12:29:45.487Z,989.83
2022-07-26T12:30:45.464Z,989.96
2022-07-26T12:31:45.375Z,989.87
2022-07-26T12:32:45.296Z,989.77
2022-07-26T12:33:45.232Z,989.78
2022-07-26T12:34:45.168Z,989.82
2022-07-26T12:35:45.104Z,989.82
2022-07-26T12:36:45.140Z,989.84
2022-07-26T12:37:44.985Z,989.84
2022-07-26T12:38:44.918Z,989.83
2022-07-26T12:39:44.844Z,989.81
2022-07-26T12:40:44.779Z,989.78
2022-07-26T12:41:44.714Z,989.76
2022-07-26T12:42:44.648Z,989.74
2022-07-26T12:44:44.513Z,989.77
2022-07-26T12:45:44.547Z,990.13
2022-07-26T12:46:44.482Z,990.49
2022-07-26T12:47:44.315Z,990.56
2022-07-26T12:48:44.296Z,990.62
2022-07-26T12:49:44.181Z,990.31
2022-07-26T12:50:44.116Z,990.64
2022-07-26T12:52:17.261Z,990.44
2022-07-26T12:52:43.985Z,989.87
2022-07-26T12:53:43.915Z,989.79
2022-07-26T12:54:43.854Z,990.07
2022-07-26T12:55:43.787Z,990.48
2022-07-26T12:56:43.721Z,990.13
2022-07-26T12:57:46.194Z,990.47
2022-07-26T12:58:43.593Z,990.52
2022-07-26T12:59:45.182Z,990.36
2022-07-26T13:00:43.467Z,989.94
2022-07-26T13:01:43.488Z,990.40
2022-07-26T13:02:43.340Z,989.59
2022-07-26T13:03:43.274Z,989.55
2022-07-26T13:04:43.323Z,989.82
2022-07-26T13:05:43.153Z,989.58
2022-07-26T13:06:43.090Z,990.23
2022-07-26T13:07:43.034Z,990.19
2022-07-26T13:08:43.579Z,990.24
2022-07-26T13:09:42.903Z,990.27
2022-07-26T13:11:30.344Z,990.15
2022-07-26T13:12:30.280Z,990.19
2022-07-26T13:13:30.224Z,989.65
2022-07-26T13:14:30.160Z,989.34
2022-07-26T13:15:36.511Z,989.39
2022-07-26T13:16:30.100Z,989.47
2022-07-26T13:17:29.974Z,989.49
2022-07-26T13:18:29.921Z,989.48
2022-07-26T13:19:29.854Z,989.46
2022-07-26T13:20:29.790Z,989.51
2022-07-26T13:21:33.484Z,989.47
2022-07-26T13:22:29.668Z,989.45
2022-07-26T13:23:29.613Z,989.47
2022-07-26T13:24:29.540Z,989.44
2022-07-26T13:25:37.045Z,989.45
2022-07-26T13:26:29.412Z,989.40
2022-07-26T13:27:35.961Z,989.43
2022-07-26T13:28:29.285Z,989.40
2022-07-26T13:29:29.219Z,989.43
2022-07-26T13:30:29.226Z,989.41
2022-07-26T13:31:29.159Z,989.41
2022-07-26T13:32:29.022Z,989.39
2022-07-26T13:33:28.957Z,989.40
2022-07-26T13:34:34.529Z,989.37
2022-07-26T13:41:25.844Z,989.36
2022-07-26T13:42:25.776Z,989.38
2022-07-26T13:43:25.910Z,989.34
2022-07-26T13:44:25.639Z,989.35
2022-07-26T13:45:28.903Z,989.36
2022-07-26T13:46:27.431Z,989.33
2022-07-26T13:47:25.434Z,989.34
2022-07-26T13:48:25.369Z,989.33
2022-07-26T13:49:26.140Z,989.33
2022-07-26T13:50:25.226Z,989.27
2022-07-26T13:51:25.158Z,989.28
2022-07-26T13:52:26.302Z,989.28
2022-07-26T13:53:25.023Z,989.29
2022-07-26T13:54:24.955Z,989.27
2022-07-26T13:55:24.890Z,989.26
2022-07-26T13:56:24.816Z,989.23
2022-07-26T13:57:24.747Z,989.25
2022-07-26T13:58:24.676Z,989.28
2022-07-26T13:59:25.161Z,989.32
2022-07-26T14:00:24.551Z,989.45
2022-07-26T14:01:43.546Z,989.72
2022-07-26T14:02:24.604Z,989.72
2022-07-26T14:03:24.475Z,989.71
2022-07-26T14:04:24.262Z,989.61
2022-07-26T14:05:24.207Z,989.54
2022-07-26T14:06:24.132Z,989.76
2022-07-26T14:07:24.063Z,989.73
2022-07-26T14:08:23.995Z,989.28
2022-07-26T14:09:27.559Z,989.64
2022-07-26T14:10:23.952Z,989.31
2022-07-26T14:11:23.794Z,989.29
2022-07-26T14:12:23.931Z,989.28
2022-07-26T14:13:23.665Z,989.26
2022-07-26T14:14:23.603Z,989.32
2022-07-26T14:15:23.863Z,989.31
2022-07-26T14:16:23.546Z,989.28
2022-07-26T14:17:23.399Z,989.33
2022-07-26T14:18:23.335Z,989.34
2022-07-26T14:19:23.264Z,989.33
2022-07-26T14:20:23.208Z,989.34
2022-07-26T14:21:23.135Z,989.30
2022-07-26T14:22:23.117Z,989.29
2022-07-26T14:23:23.002Z,989.34
2022-07-26T14:24:22.935Z,989.33
2022-07-26T14:25:22.884Z,989.32
2022-07-26T14:26:22.805Z,989.35
2022-07-26T14:27:22.736Z,989.32
2022-07-26T14:28:22.666Z,989.31
2022-07-26T14:29:22.607Z,989.30
2022-07-26T14:30:22.532Z,989.27